الصفحة الرئيسية
METAR-TAF:

METAR-TAF

مطار :

Launceston, أستراليا

دائرة عرض: 41-32S, خط طول: 147-12E, ارتفاع: 171 متر

مراقبة الطقس الحالي

تاريخ ووقت الإصدار 30 دقيقة قبل الساعة 19:30UTC
ريح 3 عقدة من الغرب/الجنوب الغربي
درجة الحرارة 5°درجة مئوية
الرطوبة 93%
ضغط 1028 hPa
الرؤية 10 كم أو أكثر
ملبد بالغيوم على ارتفاع 2200 قدم

METAR: YMLT 251930Z AUTO 24003KT 9999 // OVC022 05/04 Q1028 RF00.0/000.0

زمن: 06:00 (20:00 UTC)

توقعات

تاريخ ووقت الإصدار 2ساعات و 48 دقيقة قبل الساعة 17:12UTC
التوقعات صالحة من25 الساعة 18 UTC إلى 26 الساعة 18 UTC
ريح 5 عقدة من الجنوب
الرؤية 10 كم أو أكثر
غيوم قليلة على ارتفاع 1500 قدم
غيوم متفرقة على ارتفاع 2000 قدم
من 26 الساعة 0400 UTC
ريح 3 عقدةمن اتجاهات متغيرة
الرؤية 10 كم أو أكثر
غيوم قليلة على ارتفاع 2000 قدم
غيوم مفككة على ارتفاع 2500 قدم
نظرية الاحتمالات 30%
من 25 الساعة 18 UTC إلى 26 الساعة 00 UTC
الرؤية: 0200 متر
غيوم مفككة على ارتفاع 100 قدم
ضباب

TAF: YMLT 251712Z 2518/2618 18005KT 9999 FEW015 SCT020 FM260400 VRB03KT 9999 FEW020 BKN025 PROB30 2518/2600 0200 FG BKN001

أرصاد الطقس والتوقعات من أكثر من 4000 مطار (تقارير الطقس للمطار METAR والتنبؤ بالطقس بالمطارTAF).

المحطات المتاحة هي النقط الصفراء والحمراء على الخريطة.

حرك المؤشر فوق النقطة لمعرفة اسم المحطة.

ثم انقر لمعرفة أرصاد وتوقعات الطقس.

لتغيير الخارطة: اضغط على الأزرار الخضراء مع رمز الصليب الأسود للتكبير. على الزر الأخضر مع شرطة للتصغير، أو على الأسهم الخضراء للخرائط المجاورة.


METAR-TAF: